sensor_id;sensor_type;location;lat;lon;timestamp;P1;durP1;ratioP1;P2;durP2;ratioP2
4895;SDS011;2463;49.948;8.472;2023-04-12T00:00:07;96.57;;;5.88;;
4895;SDS011;2463;49.948;8.472;2023-04-12T00:02:38;95.40;;;6.10;;
4895;SDS011;2463;49.948;8.472;2023-04-12T00:05:05;95.70;;;5.43;;
4895;SDS011;2463;49.948;8.472;2023-04-12T00:07:34;97.53;;;6.05;;
4895;SDS011;2463;49.948;8.472;2023-04-12T00:10:04;91.72;;;5.70;;
4895;SDS011;2463;49.948;8.472;2023-04-12T00:12:32;91.22;;;5.93;;
4895;SDS011;2463;49.948;8.472;2023-04-12T00:14:59;95.18;;;5.53;;
4895;SDS011;2463;49.948;8.472;2023-04-12T00:17:26;98.32;;;5.80;;
4895;SDS011;2463;49.948;8.472;2023-04-12T00:19:53;91.72;;;5.85;;
4895;SDS011;2463;49.948;8.472;2023-04-12T00:22:19;92.60;;;5.70;;
4895;SDS011;2463;49.948;8.472;2023-04-12T00:24:46;91.55;;;5.45;;
4895;SDS011;2463;49.948;8.472;2023-04-12T00:27:13;91.03;;;5.55;;
4895;SDS011;2463;49.948;8.472;2023-04-12T00:29:40;98.05;;;6.00;;
4895;SDS011;2463;49.948;8.472;2023-04-12T00:32:07;94.80;;;5.95;;
4895;SDS011;2463;49.948;8.472;2023-04-12T00:34:34;98.15;;;6.47;;
4895;SDS011;2463;49.948;8.472;2023-04-12T00:37:00;93.85;;;5.32;;
4895;SDS011;2463;49.948;8.472;2023-04-12T00:39:27;95.35;;;5.75;;
4895;SDS011;2463;49.948;8.472;2023-04-12T00:41:54;97.05;;;5.95;;
4895;SDS011;2463;49.948;8.472;2023-04-12T00:44:22;94.03;;;6.53;;
4895;SDS011;2463;49.948;8.472;2023-04-12T00:46:49;96.22;;;6.47;;
4895;SDS011;2463;49.948;8.472;2023-04-12T00:49:16;91.35;;;5.53;;
4895;SDS011;2463;49.948;8.472;2023-04-12T00:51:43;94.65;;;5.57;;
4895;SDS011;2463;49.948;8.472;2023-04-12T00:54:09;92.03;;;5.55;;
4895;SDS011;2463;49.948;8.472;2023-04-12T00:56:38;94.55;;;5.75;;
4895;SDS011;2463;49.948;8.472;2023-04-12T00:59:06;92.00;;;5.57;;
4895;SDS011;2463;49.948;8.472;2023-04-12T01:01:33;93.13;;;5.57;;
4895;SDS011;2463;49.948;8.472;2023-04-12T01:04:00;95.60;;;6.07;;
4895;SDS011;2463;49.948;8.472;2023-04-12T01:17:34;98.90;;;6.47;;
4895;SDS011;2463;49.948;8.472;2023-04-12T01:20:08;99.10;;;6.00;;
4895;SDS011;2463;49.948;8.472;2023-04-12T01:25:36;95.10;;;5.72;;
4895;SDS011;2463;49.948;8.472;2023-04-12T01:28:08;95.95;;;5.90;;
4895;SDS011;2463;49.948;8.472;2023-04-12T01:30:37;96.13;;;6.20;;
4895;SDS011;2463;49.948;8.472;2023-04-12T01:33:06;92.70;;;5.85;;
4895;SDS011;2463;49.948;8.472;2023-04-12T01:35:36;90.82;;;5.68;;
4895;SDS011;2463;49.948;8.472;2023-04-12T01:38:04;95.15;;;5.68;;
4895;SDS011;2463;49.948;8.472;2023-04-12T01:40:31;94.45;;;5.85;;
4895;SDS011;2463;49.948;8.472;2023-04-12T01:43:05;97.97;;;5.72;;
4895;SDS011;2463;49.948;8.472;2023-04-12T01:45:32;93.00;;;5.55;;
4895;SDS011;2463;49.948;8.472;2023-04-12T01:48:00;97.13;;;6.18;;
4895;SDS011;2463;49.948;8.472;2023-04-12T01:50:33;94.65;;;6.00;;
4895;SDS011;2463;49.948;8.472;2023-04-12T01:56:18;97.05;;;6.10;;
4895;SDS011;2463;49.948;8.472;2023-04-12T01:58:47;92.03;;;5.70;;
4895;SDS011;2463;49.948;8.472;2023-04-12T02:01:16;104.10;;;6.60;;
4895;SDS011;2463;49.948;8.472;2023-04-12T02:03:44;97.55;;;6.00;;
4895;SDS011;2463;49.948;8.472;2023-04-12T02:06:15;95.65;;;5.75;;
4895;SDS011;2463;49.948;8.472;2023-04-12T02:08:46;99.80;;;6.28;;
4895;SDS011;2463;49.948;8.472;2023-04-12T02:11:13;95.20;;;6.10;;
4895;SDS011;2463;49.948;8.472;2023-04-12T02:13:40;98.18;;;6.18;;
4895;SDS011;2463;49.948;8.472;2023-04-12T02:16:07;93.57;;;5.95;;
4895;SDS011;2463;49.948;8.472;2023-04-12T02:18:35;91.85;;;5.57;;
4895;SDS011;2463;49.948;8.472;2023-04-12T02:21:02;99.28;;;6.38;;
4895;SDS011;2463;49.948;8.472;2023-04-12T02:23:29;92.82;;;6.07;;
4895;SDS011;2463;49.948;8.472;2023-04-12T02:25:55;95.68;;;5.90;;
4895;SDS011;2463;49.948;8.472;2023-04-12T02:28:22;93.47;;;5.85;;
4895;SDS011;2463;49.948;8.472;2023-04-12T02:30:48;92.07;;;5.90;;
4895;SDS011;2463;49.948;8.472;2023-04-12T02:33:18;99.65;;;6.68;;
4895;SDS011;2463;49.948;8.472;2023-04-12T02:35:53;99.75;;;6.82;;
4895;SDS011;2463;49.948;8.472;2023-04-12T02:38:22;96.35;;;6.28;;
4895;SDS011;2463;49.948;8.472;2023-04-12T02:40:48;93.38;;;6.40;;
4895;SDS011;2463;49.948;8.472;2023-04-12T02:43:15;95.45;;;6.60;;
4895;SDS011;2463;49.948;8.472;2023-04-12T02:45:42;95.32;;;7.30;;
4895;SDS011;2463;49.948;8.472;2023-04-12T02:48:09;98.57;;;7.28;;
4895;SDS011;2463;49.948;8.472;2023-04-12T02:50:36;100.45;;;7.68;;
4895;SDS011;2463;49.948;8.472;2023-04-12T02:53:02;97.00;;;7.38;;
4895;SDS011;2463;49.948;8.472;2023-04-12T02:55:29;94.00;;;7.10;;
4895;SDS011;2463;49.948;8.472;2023-04-12T02:57:56;102.13;;;7.30;;
4895;SDS011;2463;49.948;8.472;2023-04-12T03:00:23;107.35;;;7.85;;
4895;SDS011;2463;49.948;8.472;2023-04-12T03:02:50;98.50;;;7.28;;
4895;SDS011;2463;49.948;8.472;2023-04-12T03:05:17;97.43;;;7.55;;
4895;SDS011;2463;49.948;8.472;2023-04-12T03:07:44;97.85;;;7.20;;
4895;SDS011;2463;49.948;8.472;2023-04-12T03:10:11;97.65;;;6.75;;
4895;SDS011;2463;49.948;8.472;2023-04-12T03:12:38;96.82;;;7.00;;
4895;SDS011;2463;49.948;8.472;2023-04-12T03:15:05;97.25;;;7.05;;
4895;SDS011;2463;49.948;8.472;2023-04-12T03:17:32;100.55;;;7.15;;
4895;SDS011;2463;49.948;8.472;2023-04-12T03:20:05;95.75;;;7.10;;
4895;SDS011;2463;49.948;8.472;2023-04-12T03:22:35;95.60;;;7.00;;
4895;SDS011;2463;49.948;8.472;2023-04-12T03:25:02;96.88;;;6.85;;
4895;SDS011;2463;49.948;8.472;2023-04-12T03:27:30;93.80;;;6.60;;
4895;SDS011;2463;49.948;8.472;2023-04-12T03:29:57;96.15;;;7.65;;
4895;SDS011;2463;49.948;8.472;2023-04-12T03:32:23;95.45;;;7.20;;
4895;SDS011;2463;49.948;8.472;2023-04-12T03:34:50;95.03;;;6.40;;
4895;SDS011;2463;49.948;8.472;2023-04-12T03:37:17;99.38;;;6.75;;
4895;SDS011;2463;49.948;8.472;2023-04-12T03:39:44;97.25;;;7.32;;
4895;SDS011;2463;49.948;8.472;2023-04-12T03:42:13;97.43;;;7.88;;
4895;SDS011;2463;49.948;8.472;2023-04-12T03:44:57;95.18;;;6.70;;
4895;SDS011;2463;49.948;8.472;2023-04-12T03:47:23;96.32;;;6.70;;
4895;SDS011;2463;49.948;8.472;2023-04-12T03:49:50;94.93;;;7.72;;
4895;SDS011;2463;49.948;8.472;2023-04-12T03:52:36;95.43;;;7.55;;
4895;SDS011;2463;49.948;8.472;2023-04-12T03:55:03;94.35;;;7.60;;
4895;SDS011;2463;49.948;8.472;2023-04-12T03:57:32;95.40;;;7.30;;
4895;SDS011;2463;49.948;8.472;2023-04-12T03:59:59;99.88;;;8.23;;
4895;SDS011;2463;49.948;8.472;2023-04-12T04:02:26;99.53;;;7.50;;
4895;SDS011;2463;49.948;8.472;2023-04-12T04:04:53;96.07;;;6.95;;
4895;SDS011;2463;49.948;8.472;2023-04-12T04:07:20;100.88;;;7.72;;
4895;SDS011;2463;49.948;8.472;2023-04-12T04:09:47;98.63;;;9.40;;
4895;SDS011;2463;49.948;8.472;2023-04-12T04:12:15;104.10;;;7.45;;
4895;SDS011;2463;49.948;8.472;2023-04-12T04:14:41;99.00;;;8.63;;
4895;SDS011;2463;49.948;8.472;2023-04-12T04:17:08;100.15;;;8.30;;
4895;SDS011;2463;49.948;8.472;2023-04-12T04:19:35;97.90;;;8.05;;
4895;SDS011;2463;49.948;8.472;2023-04-12T04:22:02;96.53;;;7.82;;
4895;SDS011;2463;49.948;8.472;2023-04-12T04:24:29;98.35;;;8.35;;
4895;SDS011;2463;49.948;8.472;2023-04-12T04:26:56;97.38;;;7.72;;
4895;SDS011;2463;49.948;8.472;2023-04-12T04:29:23;95.57;;;6.80;;
4895;SDS011;2463;49.948;8.472;2023-04-12T04:31:51;98.20;;;7.70;;
4895;SDS011;2463;49.948;8.472;2023-04-12T04:34:19;92.78;;;6.30;;
4895;SDS011;2463;49.948;8.472;2023-04-12T04:36:47;95.65;;;6.50;;
4895;SDS011;2463;49.948;8.472;2023-04-12T04:39:14;94.32;;;6.63;;
4895;SDS011;2463;49.948;8.472;2023-04-12T04:41:40;93.88;;;6.28;;
4895;SDS011;2463;49.948;8.472;2023-04-12T04:44:07;99.75;;;6.60;;
4895;SDS011;2463;49.948;8.472;2023-04-12T04:46:35;97.50;;;5.95;;
4895;SDS011;2463;49.948;8.472;2023-04-12T04:49:03;92.88;;;5.75;;
4895;SDS011;2463;49.948;8.472;2023-04-12T04:51:30;93.47;;;6.05;;
4895;SDS011;2463;49.948;8.472;2023-04-12T04:53:57;93.68;;;6.45;;
4895;SDS011;2463;49.948;8.472;2023-04-12T04:56:24;96.30;;;6.43;;
4895;SDS011;2463;49.948;8.472;2023-04-12T04:58:51;95.55;;;6.10;;
4895;SDS011;2463;49.948;8.472;2023-04-12T05:01:21;91.78;;;5.88;;
4895;SDS011;2463;49.948;8.472;2023-04-12T05:03:51;95.07;;;6.00;;
4895;SDS011;2463;49.948;8.472;2023-04-12T05:06:17;92.82;;;5.78;;
4895;SDS011;2463;49.948;8.472;2023-04-12T05:08:44;90.80;;;5.60;;
4895;SDS011;2463;49.948;8.472;2023-04-12T05:11:11;95.38;;;5.75;;
4895;SDS011;2463;49.948;8.472;2023-04-12T05:13:37;95.65;;;5.82;;
4895;SDS011;2463;49.948;8.472;2023-04-12T05:16:05;91.88;;;5.70;;
4895;SDS011;2463;49.948;8.472;2023-04-12T05:18:33;90.68;;;5.43;;
4895;SDS011;2463;49.948;8.472;2023-04-12T05:21:03;91.70;;;6.20;;
4895;SDS011;2463;49.948;8.472;2023-04-12T05:23:40;91.57;;;5.75;;
4895;SDS011;2463;49.948;8.472;2023-04-12T05:26:08;104.28;;;6.30;;
4895;SDS011;2463;49.948;8.472;2023-04-12T05:28:34;91.88;;;5.72;;
4895;SDS011;2463;49.948;8.472;2023-04-12T05:31:01;92.13;;;5.57;;
4895;SDS011;2463;49.948;8.472;2023-04-12T05:33:29;92.53;;;5.35;;
4895;SDS011;2463;49.948;8.472;2023-04-12T05:35:58;102.85;;;5.70;;
4895;SDS011;2463;49.948;8.472;2023-04-12T05:38:25;91.25;;;5.60;;
4895;SDS011;2463;49.948;8.472;2023-04-12T05:40:52;93.45;;;5.90;;
4895;SDS011;2463;49.948;8.472;2023-04-12T05:43:19;93.03;;;5.53;;
4895;SDS011;2463;49.948;8.472;2023-04-12T05:45:45;91.72;;;5.50;;
4895;SDS011;2463;49.948;8.472;2023-04-12T05:48:12;90.72;;;5.15;;
4895;SDS011;2463;49.948;8.472;2023-04-12T05:50:39;96.65;;;7.28;;
4895;SDS011;2463;49.948;8.472;2023-04-12T05:53:06;96.28;;;5.70;;
4895;SDS011;2463;49.948;8.472;2023-04-12T05:55:33;93.82;;;6.13;;
4895;SDS011;2463;49.948;8.472;2023-04-12T05:58:03;92.22;;;5.30;;
4895;SDS011;2463;49.948;8.472;2023-04-12T06:00:29;91.72;;;5.70;;
4895;SDS011;2463;49.948;8.472;2023-04-12T06:02:56;90.22;;;5.28;;
4895;SDS011;2463;49.948;8.472;2023-04-12T06:05:24;92.15;;;5.40;;
4895;SDS011;2463;49.948;8.472;2023-04-12T06:07:50;94.82;;;5.85;;
4895;SDS011;2463;49.948;8.472;2023-04-12T06:10:17;91.13;;;5.75;;
4895;SDS011;2463;49.948;8.472;2023-04-12T06:12:44;91.55;;;5.43;;
4895;SDS011;2463;49.948;8.472;2023-04-12T06:15:11;91.75;;;5.25;;
4895;SDS011;2463;49.948;8.472;2023-04-12T06:17:37;94.30;;;6.20;;
4895;SDS011;2463;49.948;8.472;2023-04-12T06:20:04;93.15;;;5.30;;
4895;SDS011;2463;49.948;8.472;2023-04-12T06:22:35;91.32;;;5.25;;
4895;SDS011;2463;49.948;8.472;2023-04-12T06:25:03;92.15;;;5.70;;
4895;SDS011;2463;49.948;8.472;2023-04-12T06:27:30;92.55;;;5.70;;
4895;SDS011;2463;49.948;8.472;2023-04-12T06:29:57;91.22;;;5.18;;
4895;SDS011;2463;49.948;8.472;2023-04-12T06:32:24;91.70;;;5.35;;
4895;SDS011;2463;49.948;8.472;2023-04-12T06:34:52;90.38;;;5.10;;
4895;SDS011;2463;49.948;8.472;2023-04-12T06:37:19;94.03;;;5.18;;
4895;SDS011;2463;49.948;8.472;2023-04-12T06:39:46;91.25;;;5.15;;
4895;SDS011;2463;49.948;8.472;2023-04-12T06:42:13;91.13;;;5.15;;
4895;SDS011;2463;49.948;8.472;2023-04-12T06:44:40;90.22;;;5.00;;
4895;SDS011;2463;49.948;8.472;2023-04-12T06:47:07;96.53;;;5.20;;
4895;SDS011;2463;49.948;8.472;2023-04-12T06:49:34;90.05;;;5.22;;
4895;SDS011;2463;49.948;8.472;2023-04-12T06:52:01;92.75;;;5.15;;
4895;SDS011;2463;49.948;8.472;2023-04-12T06:54:28;91.18;;;5.30;;
4895;SDS011;2463;49.948;8.472;2023-04-12T06:56:54;89.93;;;4.90;;
4895;SDS011;2463;49.948;8.472;2023-04-12T06:59:22;94.25;;;5.40;;
4895;SDS011;2463;49.948;8.472;2023-04-12T07:01:49;94.85;;;5.40;;
4895;SDS011;2463;49.948;8.472;2023-04-12T07:04:15;91.75;;;5.07;;
4895;SDS011;2463;49.948;8.472;2023-04-12T07:06:42;94.00;;;5.10;;
4895;SDS011;2463;49.948;8.472;2023-04-12T07:09:09;93.15;;;5.40;;
4895;SDS011;2463;49.948;8.472;2023-04-12T07:11:36;90.50;;;5.60;;
4895;SDS011;2463;49.948;8.472;2023-04-12T07:14:02;90.93;;;5.40;;
4895;SDS011;2463;49.948;8.472;2023-04-12T07:16:29;91.60;;;5.50;;
4895;SDS011;2463;49.948;8.472;2023-04-12T07:18:58;92.85;;;5.80;;
4895;SDS011;2463;49.948;8.472;2023-04-12T07:21:25;91.97;;;5.72;;
4895;SDS011;2463;49.948;8.472;2023-04-12T07:23:52;90.97;;;6.00;;
4895;SDS011;2463;49.948;8.472;2023-04-12T07:26:19;90.65;;;5.15;;
4895;SDS011;2463;49.948;8.472;2023-04-12T07:28:46;92.45;;;5.63;;
4895;SDS011;2463;49.948;8.472;2023-04-12T07:31:13;94.10;;;5.45;;
4895;SDS011;2463;49.948;8.472;2023-04-12T07:33:41;91.07;;;5.43;;
4895;SDS011;2463;49.948;8.472;2023-04-12T07:36:09;92.38;;;5.70;;
4895;SDS011;2463;49.948;8.472;2023-04-12T07:38:36;91.07;;;5.43;;
4895;SDS011;2463;49.948;8.472;2023-04-12T07:41:03;91.22;;;5.35;;
4895;SDS011;2463;49.948;8.472;2023-04-12T07:43:30;96.55;;;5.78;;
4895;SDS011;2463;49.948;8.472;2023-04-12T07:45:57;90.32;;;5.32;;
4895;SDS011;2463;49.948;8.472;2023-04-12T07:48:24;94.38;;;7.18;;
4895;SDS011;2463;49.948;8.472;2023-04-12T07:50:51;92.50;;;5.60;;
4895;SDS011;2463;49.948;8.472;2023-04-12T07:53:22;94.78;;;5.97;;
4895;SDS011;2463;49.948;8.472;2023-04-12T07:55:50;96.80;;;5.40;;
4895;SDS011;2463;49.948;8.472;2023-04-12T07:58:17;91.07;;;5.63;;
4895;SDS011;2463;49.948;8.472;2023-04-12T08:00:45;90.97;;;5.40;;
4895;SDS011;2463;49.948;8.472;2023-04-12T08:03:12;92.07;;;5.32;;
4895;SDS011;2463;49.948;8.472;2023-04-12T08:05:40;100.88;;;5.90;;
4895;SDS011;2463;49.948;8.472;2023-04-12T08:08:07;95.85;;;5.80;;
4895;SDS011;2463;49.948;8.472;2023-04-12T08:10:39;92.10;;;6.78;;
4895;SDS011;2463;49.948;8.472;2023-04-12T08:13:06;91.90;;;5.40;;
4895;SDS011;2463;49.948;8.472;2023-04-12T08:15:32;92.55;;;5.60;;
4895;SDS011;2463;49.948;8.472;2023-04-12T08:18:00;90.82;;;5.45;;
4895;SDS011;2463;49.948;8.472;2023-04-12T08:20:27;90.75;;;5.30;;
4895;SDS011;2463;49.948;8.472;2023-04-12T08:22:54;93.35;;;5.50;;
4895;SDS011;2463;49.948;8.472;2023-04-12T08:25:21;92.60;;;5.40;;
4895;SDS011;2463;49.948;8.472;2023-04-12T08:27:48;93.05;;;5.63;;
4895;SDS011;2463;49.948;8.472;2023-04-12T08:30:16;95.47;;;6.95;;
4895;SDS011;2463;49.948;8.472;2023-04-12T08:32:43;93.72;;;5.75;;
4895;SDS011;2463;49.948;8.472;2023-04-12T08:35:10;90.35;;;5.55;;
4895;SDS011;2463;49.948;8.472;2023-04-12T08:37:37;93.07;;;6.00;;
4895;SDS011;2463;49.948;8.472;2023-04-12T08:40:07;94.53;;;5.40;;
4895;SDS011;2463;49.948;8.472;2023-04-12T08:42:34;97.00;;;5.53;;
4895;SDS011;2463;49.948;8.472;2023-04-12T08:45:09;94.55;;;6.50;;
4895;SDS011;2463;49.948;8.472;2023-04-12T08:47:41;92.25;;;5.50;;
4895;SDS011;2463;49.948;8.472;2023-04-12T08:50:10;98.07;;;5.53;;
4895;SDS011;2463;49.948;8.472;2023-04-12T08:52:42;91.28;;;5.78;;
4895;SDS011;2463;49.948;8.472;2023-04-12T08:55:09;91.80;;;5.72;;
4895;SDS011;2463;49.948;8.472;2023-04-12T08:57:38;92.45;;;5.88;;
4895;SDS011;2463;49.948;8.472;2023-04-12T09:00:06;90.32;;;5.70;;
4895;SDS011;2463;49.948;8.472;2023-04-12T09:02:34;93.43;;;5.72;;
4895;SDS011;2463;49.948;8.472;2023-04-12T09:05:03;91.65;;;5.82;;
4895;SDS011;2463;49.948;8.472;2023-04-12T09:07:32;95.10;;;6.45;;
4895;SDS011;2463;49.948;8.472;2023-04-12T09:09:59;92.40;;;5.90;;
4895;SDS011;2463;49.948;8.472;2023-04-12T09:12:26;95.90;;;7.22;;
4895;SDS011;2463;49.948;8.472;2023-04-12T09:15:05;94.90;;;5.63;;
4895;SDS011;2463;49.948;8.472;2023-04-12T09:17:37;92.32;;;5.95;;
4895;SDS011;2463;49.948;8.472;2023-04-12T09:22:41;91.88;;;5.40;;
4895;SDS011;2463;49.948;8.472;2023-04-12T09:25:12;94.03;;;5.60;;
4895;SDS011;2463;49.948;8.472;2023-04-12T09:27:47;91.70;;;5.78;;
4895;SDS011;2463;49.948;8.472;2023-04-12T09:30:15;91.72;;;5.30;;
4895;SDS011;2463;49.948;8.472;2023-04-12T09:32:43;90.28;;;5.43;;
4895;SDS011;2463;49.948;8.472;2023-04-12T09:35:10;90.95;;;6.60;;
4895;SDS011;2463;49.948;8.472;2023-04-12T09:37:37;93.32;;;6.03;;
4895;SDS011;2463;49.948;8.472;2023-04-12T09:40:05;91.45;;;6.10;;
4895;SDS011;2463;49.948;8.472;2023-04-12T09:42:34;95.90;;;6.80;;
4895;SDS011;2463;49.948;8.472;2023-04-12T09:47:49;97.50;;;6.18;;
4895;SDS011;2463;49.948;8.472;2023-04-12T09:50:23;92.45;;;5.97;;
4895;SDS011;2463;49.948;8.472;2023-04-12T09:52:52;96.38;;;6.30;;
4895;SDS011;2463;49.948;8.472;2023-04-12T09:55:20;94.70;;;7.50;;
4895;SDS011;2463;49.948;8.472;2023-04-12T09:57:49;93.07;;;6.50;;
4895;SDS011;2463;49.948;8.472;2023-04-12T10:00:17;93.88;;;6.40;;
4895;SDS011;2463;49.948;8.472;2023-04-12T10:02:48;93.97;;;6.45;;
4895;SDS011;2463;49.948;8.472;2023-04-12T10:05:19;103.57;;;6.35;;
4895;SDS011;2463;49.948;8.472;2023-04-12T10:07:47;96.90;;;6.63;;
4895;SDS011;2463;49.948;8.472;2023-04-12T10:10:15;91.68;;;6.43;;
4895;SDS011;2463;49.948;8.472;2023-04-12T10:12:44;91.45;;;6.55;;
4895;SDS011;2463;49.948;8.472;2023-04-12T10:15:13;93.10;;;7.15;;
4895;SDS011;2463;49.948;8.472;2023-04-12T10:17:44;96.60;;;7.40;;
4895;SDS011;2463;49.948;8.472;2023-04-12T10:20:13;94.72;;;6.95;;
4895;SDS011;2463;49.948;8.472;2023-04-12T10:22:43;92.10;;;6.43;;
4895;SDS011;2463;49.948;8.472;2023-04-12T10:25:17;92.32;;;6.82;;
4895;SDS011;2463;49.948;8.472;2023-04-12T10:27:46;97.25;;;8.45;;
4895;SDS011;2463;49.948;8.472;2023-04-12T10:38:13;96.57;;;7.10;;
4895;SDS011;2463;49.948;8.472;2023-04-12T10:43:39;93.70;;;7.22;;
4895;SDS011;2463;49.948;8.472;2023-04-12T10:49:09;97.82;;;7.95;;
4895;SDS011;2463;49.948;8.472;2023-04-12T10:51:37;99.75;;;6.82;;
4895;SDS011;2463;49.948;8.472;2023-04-12T10:56:35;97.70;;;8.02;;
4895;SDS011;2463;49.948;8.472;2023-04-12T10:59:04;93.97;;;7.50;;
4895;SDS011;2463;49.948;8.472;2023-04-12T11:01:35;95.18;;;7.30;;
4895;SDS011;2463;49.948;8.472;2023-04-12T11:04:14;94.32;;;7.32;;
4895;SDS011;2463;49.948;8.472;2023-04-12T11:06:47;95.95;;;6.90;;
4895;SDS011;2463;49.948;8.472;2023-04-12T11:09:25;93.22;;;6.85;;
4895;SDS011;2463;49.948;8.472;2023-04-12T11:11:56;93.63;;;7.00;;
4895;SDS011;2463;49.948;8.472;2023-04-12T11:14:26;94.72;;;7.10;;
4895;SDS011;2463;49.948;8.472;2023-04-12T11:19:31;92.28;;;7.03;;
4895;SDS011;2463;49.948;8.472;2023-04-12T11:22:02;96.05;;;6.50;;
4895;SDS011;2463;49.948;8.472;2023-04-12T11:24:30;94.80;;;6.90;;
4895;SDS011;2463;49.948;8.472;2023-04-12T11:26:57;92.85;;;6.70;;
4895;SDS011;2463;49.948;8.472;2023-04-12T11:29:28;94.35;;;6.63;;
4895;SDS011;2463;49.948;8.472;2023-04-12T11:31:57;97.25;;;7.03;;
4895;SDS011;2463;49.948;8.472;2023-04-12T11:34:24;92.88;;;6.68;;
4895;SDS011;2463;49.948;8.472;2023-04-12T11:36:51;90.28;;;5.82;;
4895;SDS011;2463;49.948;8.472;2023-04-12T11:39:18;92.60;;;6.30;;
4895;SDS011;2463;49.948;8.472;2023-04-12T11:41:46;91.70;;;5.93;;
4895;SDS011;2463;49.948;8.472;2023-04-12T11:44:14;94.97;;;6.22;;
4895;SDS011;2463;49.948;8.472;2023-04-12T11:46:44;93.57;;;6.40;;
4895;SDS011;2463;49.948;8.472;2023-04-12T11:49:14;91.90;;;6.13;;
4895;SDS011;2463;49.948;8.472;2023-04-12T11:51:45;92.30;;;6.55;;
4895;SDS011;2463;49.948;8.472;2023-04-12T11:54:14;92.30;;;6.15;;
4895;SDS011;2463;49.948;8.472;2023-04-12T11:56:41;90.65;;;5.80;;
4895;SDS011;2463;49.948;8.472;2023-04-12T11:59:08;91.28;;;5.65;;
4895;SDS011;2463;49.948;8.472;2023-04-12T12:01:34;92.85;;;6.05;;
4895;SDS011;2463;49.948;8.472;2023-04-12T12:04:02;93.60;;;6.75;;
4895;SDS011;2463;49.948;8.472;2023-04-12T12:06:31;93.40;;;5.72;;
4895;SDS011;2463;49.948;8.472;2023-04-12T12:08:58;94.90;;;6.63;;
4895;SDS011;2463;49.948;8.472;2023-04-12T12:11:25;100.32;;;7.13;;
4895;SDS011;2463;49.948;8.472;2023-04-12T12:13:53;89.82;;;5.15;;
4895;SDS011;2463;49.948;8.472;2023-04-12T12:16:24;90.80;;;5.40;;
4895;SDS011;2463;49.948;8.472;2023-04-12T12:18:53;91.00;;;5.65;;
4895;SDS011;2463;49.948;8.472;2023-04-12T12:21:21;88.78;;;5.20;;
4895;SDS011;2463;49.948;8.472;2023-04-12T12:23:48;90.15;;;6.00;;
4895;SDS011;2463;49.948;8.472;2023-04-12T12:26:22;91.50;;;5.40;;
4895;SDS011;2463;49.948;8.472;2023-04-12T12:28:51;96.78;;;6.05;;
4895;SDS011;2463;49.948;8.472;2023-04-12T12:31:21;89.35;;;5.30;;
4895;SDS011;2463;49.948;8.472;2023-04-12T12:33:54;96.60;;;6.00;;
4895;SDS011;2463;49.948;8.472;2023-04-12T12:36:29;89.55;;;5.57;;
4895;SDS011;2463;49.948;8.472;2023-04-12T12:39:06;92.22;;;5.65;;
4895;SDS011;2463;49.948;8.472;2023-04-12T12:41:35;91.80;;;5.78;;
4895;SDS011;2463;49.948;8.472;2023-04-12T12:44:02;91.90;;;5.70;;
4895;SDS011;2463;49.948;8.472;2023-04-12T12:46:29;92.55;;;6.15;;
4895;SDS011;2463;49.948;8.472;2023-04-12T12:49:16;90.97;;;5.72;;
4895;SDS011;2463;49.948;8.472;2023-04-12T12:51:43;89.60;;;5.60;;
4895;SDS011;2463;49.948;8.472;2023-04-12T12:54:10;90.07;;;6.10;;
4895;SDS011;2463;49.948;8.472;2023-04-12T12:56:37;90.50;;;6.07;;
4895;SDS011;2463;49.948;8.472;2023-04-12T12:59:04;91.38;;;5.65;;
4895;SDS011;2463;49.948;8.472;2023-04-12T13:01:30;90.43;;;5.70;;
4895;SDS011;2463;49.948;8.472;2023-04-12T13:03:57;92.88;;;6.55;;
4895;SDS011;2463;49.948;8.472;2023-04-12T13:06:24;98.47;;;6.75;;
4895;SDS011;2463;49.948;8.472;2023-04-12T13:08:53;91.43;;;5.97;;
4895;SDS011;2463;49.948;8.472;2023-04-12T13:11:20;93.00;;;6.53;;
4895;SDS011;2463;49.948;8.472;2023-04-12T13:13:47;92.03;;;6.30;;
4895;SDS011;2463;49.948;8.472;2023-04-12T13:16:14;93.35;;;7.18;;
4895;SDS011;2463;49.948;8.472;2023-04-12T13:18:41;91.75;;;7.07;;
4895;SDS011;2463;49.948;8.472;2023-04-12T13:21:08;90.93;;;6.50;;
4895;SDS011;2463;49.948;8.472;2023-04-12T13:23:34;93.28;;;6.32;;
4895;SDS011;2463;49.948;8.472;2023-04-12T13:26:01;95.53;;;7.50;;
4895;SDS011;2463;49.948;8.472;2023-04-12T13:28:28;92.05;;;6.40;;
4895;SDS011;2463;49.948;8.472;2023-04-12T13:30:55;92.38;;;6.65;;
4895;SDS011;2463;49.948;8.472;2023-04-12T13:33:21;90.60;;;6.00;;
4895;SDS011;2463;49.948;8.472;2023-04-12T13:35:48;90.57;;;6.10;;
4895;SDS011;2463;49.948;8.472;2023-04-12T13:38:15;92.90;;;6.13;;
4895;SDS011;2463;49.948;8.472;2023-04-12T13:40:41;92.28;;;6.10;;
4895;SDS011;2463;49.948;8.472;2023-04-12T13:43:08;91.10;;;6.20;;
4895;SDS011;2463;49.948;8.472;2023-04-12T13:45:34;95.32;;;6.63;;
4895;SDS011;2463;49.948;8.472;2023-04-12T13:48:01;90.60;;;5.75;;
4895;SDS011;2463;49.948;8.472;2023-04-12T13:50:28;90.63;;;5.40;;
4895;SDS011;2463;49.948;8.472;2023-04-12T13:52:55;90.60;;;5.80;;
4895;SDS011;2463;49.948;8.472;2023-04-12T13:55:22;91.70;;;6.43;;
4895;SDS011;2463;49.948;8.472;2023-04-12T13:57:48;92.47;;;5.43;;
4895;SDS011;2463;49.948;8.472;2023-04-12T14:00:15;90.70;;;5.40;;
4895;SDS011;2463;49.948;8.472;2023-04-12T14:02:42;90.75;;;5.30;;
4895;SDS011;2463;49.948;8.472;2023-04-12T14:05:09;90.13;;;5.78;;
4895;SDS011;2463;49.948;8.472;2023-04-12T14:07:37;92.18;;;5.30;;
4895;SDS011;2463;49.948;8.472;2023-04-12T14:10:03;90.60;;;6.10;;
4895;SDS011;2463;49.948;8.472;2023-04-12T14:12:31;92.00;;;6.00;;
4895;SDS011;2463;49.948;8.472;2023-04-12T14:14:57;92.65;;;5.40;;
4895;SDS011;2463;49.948;8.472;2023-04-12T14:17:24;92.35;;;5.40;;
4895;SDS011;2463;49.948;8.472;2023-04-12T14:19:51;89.38;;;4.82;;
4895;SDS011;2463;49.948;8.472;2023-04-12T14:22:18;92.15;;;5.38;;
4895;SDS011;2463;49.948;8.472;2023-04-12T14:24:44;89.80;;;5.25;;
4895;SDS011;2463;49.948;8.472;2023-04-12T14:27:11;89.88;;;5.20;;
4895;SDS011;2463;49.948;8.472;2023-04-12T14:29:38;90.20;;;4.78;;
4895;SDS011;2463;49.948;8.472;2023-04-12T14:32:05;92.55;;;4.50;;
4895;SDS011;2463;49.948;8.472;2023-04-12T14:34:31;88.95;;;4.80;;
4895;SDS011;2463;49.948;8.472;2023-04-12T14:36:59;88.03;;;4.30;;
4895;SDS011;2463;49.948;8.472;2023-04-12T14:39:25;89.43;;;4.93;;
4895;SDS011;2463;49.948;8.472;2023-04-12T14:41:52;88.65;;;4.60;;
4895;SDS011;2463;49.948;8.472;2023-04-12T14:44:19;88.13;;;4.28;;
4895;SDS011;2463;49.948;8.472;2023-04-12T14:46:49;93.00;;;4.35;;
4895;SDS011;2463;49.948;8.472;2023-04-12T14:49:16;88.10;;;4.20;;
4895;SDS011;2463;49.948;8.472;2023-04-12T14:51:43;87.75;;;4.00;;
4895;SDS011;2463;49.948;8.472;2023-04-12T14:54:10;87.65;;;4.20;;
4895;SDS011;2463;49.948;8.472;2023-04-12T14:56:37;88.80;;;5.18;;
4895;SDS011;2463;49.948;8.472;2023-04-12T14:59:14;89.45;;;4.55;;
4895;SDS011;2463;49.948;8.472;2023-04-12T15:01:42;89.32;;;4.43;;
4895;SDS011;2463;49.948;8.472;2023-04-12T15:04:09;89.57;;;4.30;;
4895;SDS011;2463;49.948;8.472;2023-04-12T15:06:36;88.25;;;4.40;;
4895;SDS011;2463;49.948;8.472;2023-04-12T15:09:07;88.82;;;4.20;;
4895;SDS011;2463;49.948;8.472;2023-04-12T15:11:34;88.85;;;4.20;;
4895;SDS011;2463;49.948;8.472;2023-04-12T15:14:01;88.25;;;4.18;;
4895;SDS011;2463;49.948;8.472;2023-04-12T15:16:33;87.82;;;4.30;;
4895;SDS011;2463;49.948;8.472;2023-04-12T15:19:00;87.75;;;3.90;;
4895;SDS011;2463;49.948;8.472;2023-04-12T15:21:33;87.28;;;4.00;;
4895;SDS011;2463;49.948;8.472;2023-04-12T15:24:01;86.95;;;3.75;;
4895;SDS011;2463;49.948;8.472;2023-04-12T15:26:28;87.05;;;3.90;;
4895;SDS011;2463;49.948;8.472;2023-04-12T15:28:55;87.18;;;3.95;;
4895;SDS011;2463;49.948;8.472;2023-04-12T15:31:21;87.35;;;3.70;;
4895;SDS011;2463;49.948;8.472;2023-04-12T15:33:48;86.53;;;3.70;;
4895;SDS011;2463;49.948;8.472;2023-04-12T15:36:15;87.18;;;3.83;;
4895;SDS011;2463;49.948;8.472;2023-04-12T15:38:43;86.38;;;3.80;;
4895;SDS011;2463;49.948;8.472;2023-04-12T15:41:10;86.85;;;3.70;;
4895;SDS011;2463;49.948;8.472;2023-04-12T15:43:37;86.63;;;3.70;;
4895;SDS011;2463;49.948;8.472;2023-04-12T15:46:04;86.38;;;3.80;;